sensor_id;sensor_type;location;lat;lon;timestamp;temperature;humidity
38938;DHT22;24727;51.974;20.868;2023-05-10T00:00:36;6.40;1.00
38938;DHT22;24727;51.974;20.868;2023-05-10T00:03:02;6.50;1.00
38938;DHT22;24727;51.974;20.868;2023-05-10T00:05:32;6.30;1.00
38938;DHT22;24727;51.974;20.868;2023-05-10T00:07:59;6.30;1.00
38938;DHT22;24727;51.974;20.868;2023-05-10T00:10:25;6.30;1.00
38938;DHT22;24727;51.974;20.868;2023-05-10T00:12:52;6.20;1.00
38938;DHT22;24727;51.974;20.868;2023-05-10T00:15:19;6.20;1.00
38938;DHT22;24727;51.974;20.868;2023-05-10T00:17:46;6.10;1.00
38938;DHT22;24727;51.974;20.868;2023-05-10T00:20:12;6.20;1.00
38938;DHT22;24727;51.974;20.868;2023-05-10T00:22:38;6.10;1.00
38938;DHT22;24727;51.974;20.868;2023-05-10T00:25:05;6.20;1.00
38938;DHT22;24727;51.974;20.868;2023-05-10T00:27:31;6.20;1.00
38938;DHT22;24727;51.974;20.868;2023-05-10T00:29:57;6.30;1.00
38938;DHT22;24727;51.974;20.868;2023-05-10T00:32:24;6.20;1.00
38938;DHT22;24727;51.974;20.868;2023-05-10T00:34:50;6.20;1.00
38938;DHT22;24727;51.974;20.868;2023-05-10T00:37:16;6.20;1.00
38938;DHT22;24727;51.974;20.868;2023-05-10T00:39:42;6.20;1.00
38938;DHT22;24727;51.974;20.868;2023-05-10T00:42:08;6.20;1.00
38938;DHT22;24727;51.974;20.868;2023-05-10T00:44:34;6.00;1.00
38938;DHT22;24727;51.974;20.868;2023-05-10T00:47:01;5.90;1.00
38938;DHT22;24727;51.974;20.868;2023-05-10T00:49:29;5.90;1.00
38938;DHT22;24727;51.974;20.868;2023-05-10T00:51:55;5.90;1.00
38938;DHT22;24727;51.974;20.868;2023-05-10T00:54:22;5.90;1.00
38938;DHT22;24727;51.974;20.868;2023-05-10T00:56:49;5.80;1.00
38938;DHT22;24727;51.974;20.868;2023-05-10T00:59:18;5.80;1.00
38938;DHT22;24727;51.974;20.868;2023-05-10T01:01:45;5.70;1.00
38938;DHT22;24727;51.974;20.868;2023-05-10T01:04:12;5.50;1.00
38938;DHT22;24727;51.974;20.868;2023-05-10T01:06:39;5.40;1.00
38938;DHT22;24727;51.974;20.868;2023-05-10T01:09:06;5.40;1.00
38938;DHT22;24727;51.974;20.868;2023-05-10T01:11:37;5.40;1.00
38938;DHT22;24727;51.974;20.868;2023-05-10T01:14:05;5.40;1.00
38938;DHT22;24727;51.974;20.868;2023-05-10T01:16:38;5.40;1.00
38938;DHT22;24727;51.974;20.868;2023-05-10T01:19:10;5.30;1.00
38938;DHT22;24727;51.974;20.868;2023-05-10T01:21:44;5.20;1.00
38938;DHT22;24727;51.974;20.868;2023-05-10T01:32:57;5.00;1.00
38938;DHT22;24727;51.974;20.868;2023-05-10T01:38:56;5.00;1.00
38938;DHT22;24727;51.974;20.868;2023-05-10T01:41:51;4.90;1.00
38938;DHT22;24727;51.974;20.868;2023-05-10T01:47:17;4.90;1.00
38938;DHT22;24727;51.974;20.868;2023-05-10T01:49:53;4.90;1.00
38938;DHT22;24727;51.974;20.868;2023-05-10T01:52:26;4.90;1.00
38938;DHT22;24727;51.974;20.868;2023-05-10T01:55:04;4.80;1.00
38938;DHT22;24727;51.974;20.868;2023-05-10T01:57:35;4.80;1.00
38938;DHT22;24727;51.974;20.868;2023-05-10T02:00:04;4.90;1.00
38938;DHT22;24727;51.974;20.868;2023-05-10T02:02:37;4.90;1.00
38938;DHT22;24727;51.974;20.868;2023-05-10T02:05:06;4.80;1.00
38938;DHT22;24727;51.974;20.868;2023-05-10T02:07:37;4.80;1.00
38938;DHT22;24727;51.974;20.868;2023-05-10T02:10:10;4.70;1.00
38938;DHT22;24727;51.974;20.868;2023-05-10T02:12:43;4.60;1.00
38938;DHT22;24727;51.974;20.868;2023-05-10T02:15:11;4.60;1.00
38938;DHT22;24727;51.974;20.868;2023-05-10T02:17:39;4.60;1.00
38938;DHT22;24727;51.974;20.868;2023-05-10T02:20:09;4.50;1.00
38938;DHT22;24727;51.974;20.868;2023-05-10T02:22:36;4.50;1.00
38938;DHT22;24727;51.974;20.868;2023-05-10T02:25:03;4.50;1.00
38938;DHT22;24727;51.974;20.868;2023-05-10T02:27:31;4.40;1.00
38938;DHT22;24727;51.974;20.868;2023-05-10T02:29:58;4.40;1.00
38938;DHT22;24727;51.974;20.868;2023-05-10T02:32:26;4.40;1.00
38938;DHT22;24727;51.974;20.868;2023-05-10T02:34:54;4.30;1.00
38938;DHT22;24727;51.974;20.868;2023-05-10T02:37:22;4.30;1.00
38938;DHT22;24727;51.974;20.868;2023-05-10T02:39:49;4.20;1.00
38938;DHT22;24727;51.974;20.868;2023-05-10T02:42:22;4.20;1.00
38938;DHT22;24727;51.974;20.868;2023-05-10T02:44:51;4.20;1.00
38938;DHT22;24727;51.974;20.868;2023-05-10T02:47:19;4.20;1.00
38938;DHT22;24727;51.974;20.868;2023-05-10T02:49:47;4.10;1.00
38938;DHT22;24727;51.974;20.868;2023-05-10T02:52:23;4.20;1.00
38938;DHT22;24727;51.974;20.868;2023-05-10T02:54:51;4.10;1.00
38938;DHT22;24727;51.974;20.868;2023-05-10T02:57:25;4.00;1.00
38938;DHT22;24727;51.974;20.868;2023-05-10T02:59:51;4.00;1.00
38938;DHT22;24727;51.974;20.868;2023-05-10T03:02:19;4.00;1.00
38938;DHT22;24727;51.974;20.868;2023-05-10T03:04:45;3.90;1.00
38938;DHT22;24727;51.974;20.868;2023-05-10T03:07:11;3.90;1.00
38938;DHT22;24727;51.974;20.868;2023-05-10T03:09:38;3.80;1.00
38938;DHT22;24727;51.974;20.868;2023-05-10T03:15:01;3.90;1.00
38938;DHT22;24727;51.974;20.868;2023-05-10T03:18:27;3.90;1.00
38938;DHT22;24727;51.974;20.868;2023-05-10T03:20:43;4.00;1.00
38938;DHT22;24727;51.974;20.868;2023-05-10T03:25:40;3.90;1.00
38938;DHT22;24727;51.974;20.868;2023-05-10T03:28:08;3.90;1.00
38938;DHT22;24727;51.974;20.868;2023-05-10T03:30:37;3.90;1.00
38938;DHT22;24727;51.974;20.868;2023-05-10T03:33:08;4.00;1.00
38938;DHT22;24727;51.974;20.868;2023-05-10T03:35:35;4.10;1.00
38938;DHT22;24727;51.974;20.868;2023-05-10T03:38:01;4.20;1.00
38938;DHT22;24727;51.974;20.868;2023-05-10T03:40:28;4.20;1.00
38938;DHT22;24727;51.974;20.868;2023-05-10T03:42:57;4.20;1.00
38938;DHT22;24727;51.974;20.868;2023-05-10T03:45:23;4.30;1.00
38938;DHT22;24727;51.974;20.868;2023-05-10T03:47:50;4.30;1.00
38938;DHT22;24727;51.974;20.868;2023-05-10T03:50:17;4.30;1.00
38938;DHT22;24727;51.974;20.868;2023-05-10T03:52:44;4.40;1.00
38938;DHT22;24727;51.974;20.868;2023-05-10T03:55:10;4.50;1.00
38938;DHT22;24727;51.974;20.868;2023-05-10T03:57:36;4.70;1.00
38938;DHT22;24727;51.974;20.868;2023-05-10T04:00:06;4.70;1.00
38938;DHT22;24727;51.974;20.868;2023-05-10T04:02:32;4.80;1.00
38938;DHT22;24727;51.974;20.868;2023-05-10T04:04:58;5.00;1.00
38938;DHT22;24727;51.974;20.868;2023-05-10T04:07:24;5.00;1.00
38938;DHT22;24727;51.974;20.868;2023-05-10T04:09:50;5.10;1.00
38938;DHT22;24727;51.974;20.868;2023-05-10T04:12:16;5.20;1.00
38938;DHT22;24727;51.974;20.868;2023-05-10T04:14:42;5.40;1.00
38938;DHT22;24727;51.974;20.868;2023-05-10T04:17:09;5.60;1.00
38938;DHT22;24727;51.974;20.868;2023-05-10T04:19:36;5.70;1.00
38938;DHT22;24727;51.974;20.868;2023-05-10T04:22:02;5.80;1.00
38938;DHT22;24727;51.974;20.868;2023-05-10T04:24:28;5.90;1.00
38938;DHT22;24727;51.974;20.868;2023-05-10T04:26:55;6.10;1.00
38938;DHT22;24727;51.974;20.868;2023-05-10T04:29:21;6.20;1.00
38938;DHT22;24727;51.974;20.868;2023-05-10T04:31:47;6.40;1.00
38938;DHT22;24727;51.974;20.868;2023-05-10T04:34:14;6.60;1.00
38938;DHT22;24727;51.974;20.868;2023-05-10T04:36:40;6.80;1.00
38938;DHT22;24727;51.974;20.868;2023-05-10T04:39:07;7.00;1.00
38938;DHT22;24727;51.974;20.868;2023-05-10T04:41:34;7.20;1.00
38938;DHT22;24727;51.974;20.868;2023-05-10T04:44:00;7.40;1.00
38938;DHT22;24727;51.974;20.868;2023-05-10T04:46:26;7.50;1.00
38938;DHT22;24727;51.974;20.868;2023-05-10T04:48:52;7.70;1.00
38938;DHT22;24727;51.974;20.868;2023-05-10T04:51:25;7.90;1.00
38938;DHT22;24727;51.974;20.868;2023-05-10T04:53:51;8.10;1.00
38938;DHT22;24727;51.974;20.868;2023-05-10T04:56:18;8.30;1.00
38938;DHT22;24727;51.974;20.868;2023-05-10T04:58:45;8.60;1.00
38938;DHT22;24727;51.974;20.868;2023-05-10T05:01:11;8.70;1.00
38938;DHT22;24727;51.974;20.868;2023-05-10T05:03:38;8.90;1.00
38938;DHT22;24727;51.974;20.868;2023-05-10T05:06:04;9.00;1.00
38938;DHT22;24727;51.974;20.868;2023-05-10T05:08:30;9.10;1.00
38938;DHT22;24727;51.974;20.868;2023-05-10T05:10:56;9.30;1.00
38938;DHT22;24727;51.974;20.868;2023-05-10T05:13:25;9.50;1.00
38938;DHT22;24727;51.974;20.868;2023-05-10T05:15:52;9.70;1.00
38938;DHT22;24727;51.974;20.868;2023-05-10T05:18:19;10.00;1.00
38938;DHT22;24727;51.974;20.868;2023-05-10T05:20:46;10.20;1.00
38938;DHT22;24727;51.974;20.868;2023-05-10T05:23:12;10.20;1.00
38938;DHT22;24727;51.974;20.868;2023-05-10T05:25:37;10.40;1.00
38938;DHT22;24727;51.974;20.868;2023-05-10T05:28:04;10.50;1.00
38938;DHT22;24727;51.974;20.868;2023-05-10T05:30:30;10.80;1.00
38938;DHT22;24727;51.974;20.868;2023-05-10T05:32:57;10.90;1.00
38938;DHT22;24727;51.974;20.868;2023-05-10T05:35:23;11.30;1.00
38938;DHT22;24727;51.974;20.868;2023-05-10T05:37:48;11.40;1.00
38938;DHT22;24727;51.974;20.868;2023-05-10T05:40:15;11.60;1.00
38938;DHT22;24727;51.974;20.868;2023-05-10T05:42:41;11.80;1.00
38938;DHT22;24727;51.974;20.868;2023-05-10T05:45:08;12.00;1.00
38938;DHT22;24727;51.974;20.868;2023-05-10T05:47:39;12.20;1.00
38938;DHT22;24727;51.974;20.868;2023-05-10T05:50:06;12.30;1.00
38938;DHT22;24727;51.974;20.868;2023-05-10T05:52:32;12.50;1.00
38938;DHT22;24727;51.974;20.868;2023-05-10T05:54:59;12.70;1.00
38938;DHT22;24727;51.974;20.868;2023-05-10T05:57:26;12.90;1.00
38938;DHT22;24727;51.974;20.868;2023-05-10T05:59:52;13.00;1.00
38938;DHT22;24727;51.974;20.868;2023-05-10T06:02:18;13.00;1.00
38938;DHT22;24727;51.974;20.868;2023-05-10T06:04:44;13.10;1.00
38938;DHT22;24727;51.974;20.868;2023-05-10T06:07:10;13.30;1.00
38938;DHT22;24727;51.974;20.868;2023-05-10T06:09:36;13.50;1.00
38938;DHT22;24727;51.974;20.868;2023-05-10T06:12:02;13.60;1.00
38938;DHT22;24727;51.974;20.868;2023-05-10T06:14:28;13.70;1.00
38938;DHT22;24727;51.974;20.868;2023-05-10T06:16:54;13.70;1.00
38938;DHT22;24727;51.974;20.868;2023-05-10T06:19:20;13.90;1.00
38938;DHT22;24727;51.974;20.868;2023-05-10T06:21:46;13.70;1.00
38938;DHT22;24727;51.974;20.868;2023-05-10T06:24:13;13.90;1.00
38938;DHT22;24727;51.974;20.868;2023-05-10T06:26:40;14.30;1.00
38938;DHT22;24727;51.974;20.868;2023-05-10T06:29:06;14.50;1.00
38938;DHT22;24727;51.974;20.868;2023-05-10T06:31:33;14.40;1.00
38938;DHT22;24727;51.974;20.868;2023-05-10T06:33:59;14.50;1.00
38938;DHT22;24727;51.974;20.868;2023-05-10T06:36:25;14.40;1.00
38938;DHT22;24727;51.974;20.868;2023-05-10T06:38:52;14.80;1.00
38938;DHT22;24727;51.974;20.868;2023-05-10T06:41:18;14.80;1.00
38938;DHT22;24727;51.974;20.868;2023-05-10T06:43:44;15.00;1.00
38938;DHT22;24727;51.974;20.868;2023-05-10T06:46:11;15.30;1.00
38938;DHT22;24727;51.974;20.868;2023-05-10T06:48:37;15.20;1.00
38938;DHT22;24727;51.974;20.868;2023-05-10T06:51:03;15.60;1.00
38938;DHT22;24727;51.974;20.868;2023-05-10T06:53:29;15.60;1.00
38938;DHT22;24727;51.974;20.868;2023-05-10T06:55:56;15.70;1.00
38938;DHT22;24727;51.974;20.868;2023-05-10T06:58:22;16.00;1.00
38938;DHT22;24727;51.974;20.868;2023-05-10T07:00:49;16.00;1.00
38938;DHT22;24727;51.974;20.868;2023-05-10T07:03:15;16.00;1.00
38938;DHT22;24727;51.974;20.868;2023-05-10T07:05:41;16.00;1.00
38938;DHT22;24727;51.974;20.868;2023-05-10T07:08:08;16.20;1.00
38938;DHT22;24727;51.974;20.868;2023-05-10T07:10:34;16.50;1.00
38938;DHT22;24727;51.974;20.868;2023-05-10T07:12:59;16.30;1.00
38938;DHT22;24727;51.974;20.868;2023-05-10T07:15:28;16.60;1.00
38938;DHT22;24727;51.974;20.868;2023-05-10T07:17:55;16.70;1.00
38938;DHT22;24727;51.974;20.868;2023-05-10T07:20:22;16.60;1.00
38938;DHT22;24727;51.974;20.868;2023-05-10T07:22:48;16.60;1.00
38938;DHT22;24727;51.974;20.868;2023-05-10T07:25:14;16.70;1.00
38938;DHT22;24727;51.974;20.868;2023-05-10T07:27:40;16.80;1.00
38938;DHT22;24727;51.974;20.868;2023-05-10T07:30:06;16.70;1.00
38938;DHT22;24727;51.974;20.868;2023-05-10T07:32:32;16.70;1.00
38938;DHT22;24727;51.974;20.868;2023-05-10T07:34:58;16.50;1.00
38938;DHT22;24727;51.974;20.868;2023-05-10T07:37:24;16.70;1.00
38938;DHT22;24727;51.974;20.868;2023-05-10T07:39:50;16.80;1.00
38938;DHT22;24727;51.974;20.868;2023-05-10T07:42:17;16.80;1.00
38938;DHT22;24727;51.974;20.868;2023-05-10T07:44:43;17.00;1.00
38938;DHT22;24727;51.974;20.868;2023-05-10T07:47:10;17.40;1.00
38938;DHT22;24727;51.974;20.868;2023-05-10T07:49:37;17.30;1.00
38938;DHT22;24727;51.974;20.868;2023-05-10T07:52:03;17.10;1.00
38938;DHT22;24727;51.974;20.868;2023-05-10T07:54:30;17.00;1.00
38938;DHT22;24727;51.974;20.868;2023-05-10T07:56:57;17.10;1.00
38938;DHT22;24727;51.974;20.868;2023-05-10T07:59:23;16.90;1.00
38938;DHT22;24727;51.974;20.868;2023-05-10T08:01:50;16.90;1.00
38938;DHT22;24727;51.974;20.868;2023-05-10T08:04:16;17.20;1.00
38938;DHT22;24727;51.974;20.868;2023-05-10T08:06:41;17.50;1.00
38938;DHT22;24727;51.974;20.868;2023-05-10T08:09:09;17.50;1.00
38938;DHT22;24727;51.974;20.868;2023-05-10T08:11:35;18.00;1.00
38938;DHT22;24727;51.974;20.868;2023-05-10T08:14:01;17.90;1.00
38938;DHT22;24727;51.974;20.868;2023-05-10T08:16:28;18.10;1.00
38938;DHT22;24727;51.974;20.868;2023-05-10T08:18:54;18.30;1.00
38938;DHT22;24727;51.974;20.868;2023-05-10T08:21:21;18.20;1.00
38938;DHT22;24727;51.974;20.868;2023-05-10T08:23:46;18.10;1.00
38938;DHT22;24727;51.974;20.868;2023-05-10T08:26:13;18.40;1.00
38938;DHT22;24727;51.974;20.868;2023-05-10T08:28:39;19.10;1.00
38938;DHT22;24727;51.974;20.868;2023-05-10T08:31:09;19.00;1.00
38938;DHT22;24727;51.974;20.868;2023-05-10T08:33:35;19.40;1.00
38938;DHT22;24727;51.974;20.868;2023-05-10T08:36:01;19.40;1.00
38938;DHT22;24727;51.974;20.868;2023-05-10T08:38:27;19.40;1.00
38938;DHT22;24727;51.974;20.868;2023-05-10T08:40:54;19.70;1.00
38938;DHT22;24727;51.974;20.868;2023-05-10T08:43:26;19.50;1.00
38938;DHT22;24727;51.974;20.868;2023-05-10T08:45:55;19.50;1.00
38938;DHT22;24727;51.974;20.868;2023-05-10T08:48:24;19.40;1.00
38938;DHT22;24727;51.974;20.868;2023-05-10T08:50:53;19.50;1.00
38938;DHT22;24727;51.974;20.868;2023-05-10T08:53:21;19.80;1.00
38938;DHT22;24727;51.974;20.868;2023-05-10T08:55:50;19.80;1.00
38938;DHT22;24727;51.974;20.868;2023-05-10T08:58:16;20.10;1.00
38938;DHT22;24727;51.974;20.868;2023-05-10T09:00:43;20.20;1.00
38938;DHT22;24727;51.974;20.868;2023-05-10T09:03:10;20.20;1.00
38938;DHT22;24727;51.974;20.868;2023-05-10T09:05:36;19.90;1.00
38938;DHT22;24727;51.974;20.868;2023-05-10T09:08:03;19.80;1.00
38938;DHT22;24727;51.974;20.868;2023-05-10T09:10:30;19.90;1.00
38938;DHT22;24727;51.974;20.868;2023-05-10T09:12:57;20.30;1.00
38938;DHT22;24727;51.974;20.868;2023-05-10T09:15:23;21.30;1.00
38938;DHT22;24727;51.974;20.868;2023-05-10T09:17:50;21.20;1.00
38938;DHT22;24727;51.974;20.868;2023-05-10T09:20:17;20.70;1.00
38938;DHT22;24727;51.974;20.868;2023-05-10T09:22:43;20.40;1.00
38938;DHT22;24727;51.974;20.868;2023-05-10T09:25:10;20.60;1.00
38938;DHT22;24727;51.974;20.868;2023-05-10T09:27:38;20.50;1.00
38938;DHT22;24727;51.974;20.868;2023-05-10T09:30:05;20.60;1.00
38938;DHT22;24727;51.974;20.868;2023-05-10T09:32:45;20.80;1.00
38938;DHT22;24727;51.974;20.868;2023-05-10T09:35:14;20.30;1.00
38938;DHT22;24727;51.974;20.868;2023-05-10T09:37:43;20.30;1.00
38938;DHT22;24727;51.974;20.868;2023-05-10T09:40:14;20.70;1.00
38938;DHT22;24727;51.974;20.868;2023-05-10T09:42:52;20.40;1.00
38938;DHT22;24727;51.974;20.868;2023-05-10T09:45:20;21.00;1.00
38938;DHT22;24727;51.974;20.868;2023-05-10T09:47:46;21.30;1.00
38938;DHT22;24727;51.974;20.868;2023-05-10T09:50:13;21.30;1.00
38938;DHT22;24727;51.974;20.868;2023-05-10T09:52:55;21.60;1.00
38938;DHT22;24727;51.974;20.868;2023-05-10T09:55:42;21.40;1.00
38938;DHT22;24727;51.974;20.868;2023-05-10T09:58:13;20.60;1.00
38938;DHT22;24727;51.974;20.868;2023-05-10T10:00:44;20.80;1.00
38938;DHT22;24727;51.974;20.868;2023-05-10T10:03:18;21.40;1.00
38938;DHT22;24727;51.974;20.868;2023-05-10T10:05:46;20.90;1.00
38938;DHT22;24727;51.974;20.868;2023-05-10T10:08:15;20.80;1.00
38938;DHT22;24727;51.974;20.868;2023-05-10T10:10:41;21.10;1.00
38938;DHT22;24727;51.974;20.868;2023-05-10T10:13:09;21.30;1.00
38938;DHT22;24727;51.974;20.868;2023-05-10T10:15:36;21.50;1.00
38938;DHT22;24727;51.974;20.868;2023-05-10T10:18:03;21.90;1.00
38938;DHT22;24727;51.974;20.868;2023-05-10T10:20:30;22.20;1.00
38938;DHT22;24727;51.974;20.868;2023-05-10T10:22:56;21.70;1.00
38938;DHT22;24727;51.974;20.868;2023-05-10T10:25:22;21.70;1.00
38938;DHT22;24727;51.974;20.868;2023-05-10T10:30:37;21.90;1.00
38938;DHT22;24727;51.974;20.868;2023-05-10T10:35:49;21.50;1.00
38938;DHT22;24727;51.974;20.868;2023-05-10T10:38:17;21.30;1.00
38938;DHT22;24727;51.974;20.868;2023-05-10T10:40:44;21.40;1.00
38938;DHT22;24727;51.974;20.868;2023-05-10T10:43:28;21.30;1.00
38938;DHT22;24727;51.974;20.868;2023-05-10T10:46:13;20.50;1.00
38938;DHT22;24727;51.974;20.868;2023-05-10T10:48:43;20.70;1.00
38938;DHT22;24727;51.974;20.868;2023-05-10T10:51:13;21.40;1.00
38938;DHT22;24727;51.974;20.868;2023-05-10T10:53:40;21.50;1.00
38938;DHT22;24727;51.974;20.868;2023-05-10T10:56:11;21.50;1.00
38938;DHT22;24727;51.974;20.868;2023-05-10T10:58:40;21.70;1.00
38938;DHT22;24727;51.974;20.868;2023-05-10T11:01:15;21.30;1.00
38938;DHT22;24727;51.974;20.868;2023-05-10T11:06:30;21.60;1.00
38938;DHT22;24727;51.974;20.868;2023-05-10T11:09:06;21.70;1.00
38938;DHT22;24727;51.974;20.868;2023-05-10T11:11:35;22.00;1.00
38938;DHT22;24727;51.974;20.868;2023-05-10T11:14:07;22.30;1.00
38938;DHT22;24727;51.974;20.868;2023-05-10T11:16:43;22.30;1.00
38938;DHT22;24727;51.974;20.868;2023-05-10T11:19:19;21.60;1.00
38938;DHT22;24727;51.974;20.868;2023-05-10T11:22:13;21.70;1.00
38938;DHT22;24727;51.974;20.868;2023-05-10T11:24:39;21.00;1.00
38938;DHT22;24727;51.974;20.868;2023-05-10T11:27:06;21.30;1.00
38938;DHT22;24727;51.974;20.868;2023-05-10T11:29:32;21.30;1.00
38938;DHT22;24727;51.974;20.868;2023-05-10T11:31:59;21.90;1.00
38938;DHT22;24727;51.974;20.868;2023-05-10T11:34:29;22.60;1.00
38938;DHT22;24727;51.974;20.868;2023-05-10T11:37:02;22.80;1.00
38938;DHT22;24727;51.974;20.868;2023-05-10T11:39:30;22.90;1.00
38938;DHT22;24727;51.974;20.868;2023-05-10T11:41:57;22.10;1.00
38938;DHT22;24727;51.974;20.868;2023-05-10T11:44:29;21.60;1.00
38938;DHT22;24727;51.974;20.868;2023-05-10T11:47:01;21.90;1.00
38938;DHT22;24727;51.974;20.868;2023-05-10T11:49:29;22.00;1.00
38938;DHT22;24727;51.974;20.868;2023-05-10T11:52:08;22.00;1.00
38938;DHT22;24727;51.974;20.868;2023-05-10T11:54:34;22.10;1.00
38938;DHT22;24727;51.974;20.868;2023-05-10T11:57:03;21.20;1.00
38938;DHT22;24727;51.974;20.868;2023-05-10T11:59:29;22.00;1.00
38938;DHT22;24727;51.974;20.868;2023-05-10T12:01:55;21.80;1.00
38938;DHT22;24727;51.974;20.868;2023-05-10T12:04:21;21.60;1.00
38938;DHT22;24727;51.974;20.868;2023-05-10T12:06:47;21.40;1.00
38938;DHT22;24727;51.974;20.868;2023-05-10T12:09:16;21.60;1.00
38938;DHT22;24727;51.974;20.868;2023-05-10T12:11:43;21.20;1.00
38938;DHT22;24727;51.974;20.868;2023-05-10T12:14:09;21.50;1.00
38938;DHT22;24727;51.974;20.868;2023-05-10T12:16:36;21.60;1.00
38938;DHT22;24727;51.974;20.868;2023-05-10T12:19:02;22.00;1.00
38938;DHT22;24727;51.974;20.868;2023-05-10T12:21:29;22.30;1.00
38938;DHT22;24727;51.974;20.868;2023-05-10T12:24:02;22.50;1.00
38938;DHT22;24727;51.974;20.868;2023-05-10T12:26:29;22.00;1.00
38938;DHT22;24727;51.974;20.868;2023-05-10T12:29:15;22.50;1.00
38938;DHT22;24727;51.974;20.868;2023-05-10T12:31:56;22.10;1.00
38938;DHT22;24727;51.974;20.868;2023-05-10T12:34:26;21.80;1.00
38938;DHT22;24727;51.974;20.868;2023-05-10T12:36:53;21.50;1.00
38938;DHT22;24727;51.974;20.868;2023-05-10T12:39:19;21.00;1.00
38938;DHT22;24727;51.974;20.868;2023-05-10T12:41:46;20.60;1.00
38938;DHT22;24727;51.974;20.868;2023-05-10T12:44:12;20.90;1.00
38938;DHT22;24727;51.974;20.868;2023-05-10T12:46:39;21.30;1.00
38938;DHT22;24727;51.974;20.868;2023-05-10T12:49:05;21.50;1.00
38938;DHT22;24727;51.974;20.868;2023-05-10T12:51:32;21.70;1.00
38938;DHT22;24727;51.974;20.868;2023-05-10T12:53:57;21.40;1.00
38938;DHT22;24727;51.974;20.868;2023-05-10T12:56:24;21.50;1.00
38938;DHT22;24727;51.974;20.868;2023-05-10T12:58:51;21.50;1.00
38938;DHT22;24727;51.974;20.868;2023-05-10T13:01:17;21.20;1.00
38938;DHT22;24727;51.974;20.868;2023-05-10T13:03:43;21.10;1.00
38938;DHT22;24727;51.974;20.868;2023-05-10T13:06:09;21.50;1.00
38938;DHT22;24727;51.974;20.868;2023-05-10T13:08:35;21.00;1.00
38938;DHT22;24727;51.974;20.868;2023-05-10T13:11:02;20.70;1.00
38938;DHT22;24727;51.974;20.868;2023-05-10T13:13:28;20.90;1.00
38938;DHT22;24727;51.974;20.868;2023-05-10T13:15:55;21.00;1.00
38938;DHT22;24727;51.974;20.868;2023-05-10T13:18:21;20.60;1.00
38938;DHT22;24727;51.974;20.868;2023-05-10T13:20:47;20.70;1.00
38938;DHT22;24727;51.974;20.868;2023-05-10T13:23:13;20.90;1.00
38938;DHT22;24727;51.974;20.868;2023-05-10T13:25:39;20.70;1.00
38938;DHT22;24727;51.974;20.868;2023-05-10T13:28:05;20.60;1.00
38938;DHT22;24727;51.974;20.868;2023-05-10T13:30:32;20.70;1.00
38938;DHT22;24727;51.974;20.868;2023-05-10T13:32:58;21.40;1.00
38938;DHT22;24727;51.974;20.868;2023-05-10T13:35:25;21.80;1.00
38938;DHT22;24727;51.974;20.868;2023-05-10T13:37:52;21.60;1.00
38938;DHT22;24727;51.974;20.868;2023-05-10T13:40:19;21.70;1.00
38938;DHT22;24727;51.974;20.868;2023-05-10T13:42:45;21.20;1.00
38938;DHT22;24727;51.974;20.868;2023-05-10T13:45:12;21.20;1.00
38938;DHT22;24727;51.974;20.868;2023-05-10T13:47:39;21.00;1.00
38938;DHT22;24727;51.974;20.868;2023-05-10T13:50:07;21.50;1.00
38938;DHT22;24727;51.974;20.868;2023-05-10T13:52:33;21.90;1.00
38938;DHT22;24727;51.974;20.868;2023-05-10T13:55:03;21.70;1.00
38938;DHT22;24727;51.974;20.868;2023-05-10T13:57:30;21.00;1.00
38938;DHT22;24727;51.974;20.868;2023-05-10T13:59:56;20.90;1.00
38938;DHT22;24727;51.974;20.868;2023-05-10T14:02:23;20.90;1.00
38938;DHT22;24727;51.974;20.868;2023-05-10T14:04:50;21.10;1.00
38938;DHT22;24727;51.974;20.868;2023-05-10T14:07:15;20.30;1.00
38938;DHT22;24727;51.974;20.868;2023-05-10T14:09:41;20.30;1.00
38938;DHT22;24727;51.974;20.868;2023-05-10T14:12:07;20.70;1.00
38938;DHT22;24727;51.974;20.868;2023-05-10T14:14:34;20.60;1.00
38938;DHT22;24727;51.974;20.868;2023-05-10T14:17:01;20.30;1.00
38938;DHT22;24727;51.974;20.868;2023-05-10T14:19:27;20.30;1.00
38938;DHT22;24727;51.974;20.868;2023-05-10T14:21:53;20.30;1.00
38938;DHT22;24727;51.974;20.868;2023-05-10T14:24:19;20.00;1.00
38938;DHT22;24727;51.974;20.868;2023-05-10T14:26:45;19.40;1.00
38938;DHT22;24727;51.974;20.868;2023-05-10T14:29:11;19.20;1.00
38938;DHT22;24727;51.974;20.868;2023-05-10T14:31:38;19.10;1.00
38938;DHT22;24727;51.974;20.868;2023-05-10T14:34:04;18.90;1.00
38938;DHT22;24727;51.974;20.868;2023-05-10T14:36:30;18.80;1.00
38938;DHT22;24727;51.974;20.868;2023-05-10T14:38:56;18.90;1.00
38938;DHT22;24727;51.974;20.868;2023-05-10T14:41:23;19.10;1.00
38938;DHT22;24727;51.974;20.868;2023-05-10T14:43:50;19.40;1.00
38938;DHT22;24727;51.974;20.868;2023-05-10T14:46:18;19.30;1.00
38938;DHT22;24727;51.974;20.868;2023-05-10T14:48:44;19.30;1.00
38938;DHT22;24727;51.974;20.868;2023-05-10T14:51:10;19.10;1.00
38938;DHT22;24727;51.974;20.868;2023-05-10T14:53:43;19.20;1.00
38938;DHT22;24727;51.974;20.868;2023-05-10T14:56:09;19.00;1.00
38938;DHT22;24727;51.974;20.868;2023-05-10T14:58:35;18.90;1.00
38938;DHT22;24727;51.974;20.868;2023-05-10T15:01:01;18.80;1.00
38938;DHT22;24727;51.974;20.868;2023-05-10T15:03:27;19.10;1.00
38938;DHT22;24727;51.974;20.868;2023-05-10T15:05:54;18.80;1.00
38938;DHT22;24727;51.974;20.868;2023-05-10T15:08:21;18.80;1.00
38938;DHT22;24727;51.974;20.868;2023-05-10T15:10:48;18.90;1.00
38938;DHT22;24727;51.974;20.868;2023-05-10T15:13:14;18.40;1.00
38938;DHT22;24727;51.974;20.868;2023-05-10T15:15:40;18.40;1.00
38938;DHT22;24727;51.974;20.868;2023-05-10T15:18:09;18.40;1.00
38938;DHT22;24727;51.974;20.868;2023-05-10T15:20:36;18.60;1.00
38938;DHT22;24727;51.974;20.868;2023-05-10T15:23:03;18.80;1.00
38938;DHT22;24727;51.974;20.868;2023-05-10T15:25:29;18.40;1.00
38938;DHT22;24727;51.974;20.868;2023-05-10T15:27:55;18.30;1.00
38938;DHT22;24727;51.974;20.868;2023-05-10T15:30:22;18.00;1.00
38938;DHT22;24727;51.974;20.868;2023-05-10T15:32:48;18.40;1.00
38938;DHT22;24727;51.974;20.868;2023-05-10T15:35:14;18.30;1.00
38938;DHT22;24727;51.974;20.868;2023-05-10T15:37:41;18.40;1.00
38938;DHT22;24727;51.974;20.868;2023-05-10T15:40:07;18.60;1.00
38938;DHT22;24727;51.974;20.868;2023-05-10T15:42:34;18.30;1.00
38938;DHT22;24727;51.974;20.868;2023-05-10T15:45:01;18.10;1.00
38938;DHT22;24727;51.974;20.868;2023-05-10T15:47:30;18.00;1.00
38938;DHT22;24727;51.974;20.868;2023-05-10T15:49:56;18.00;1.00
38938;DHT22;24727;51.974;20.868;2023-05-10T15:52:22;17.80;1.00
38938;DHT22;24727;51.974;20.868;2023-05-10T15:54:49;17.90;1.00
38938;DHT22;24727;51.974;20.868;2023-05-10T15:57:16;17.80;1.00
38938;DHT22;24727;51.974;20.868;2023-05-10T15:59:42;17.70;1.00
38938;DHT22;24727;51.974;20.868;2023-05-10T16:02:09;17.50;1.00
38938;DHT22;24727;51.974;20.868;2023-05-10T16:04:38;17.50;1.00
38938;DHT22;24727;51.974;20.868;2023-05-10T16:07:05;17.30;1.00